CheckWX is a tool to help pilots better visualize weather data.  It is not intended as a substitute for an official pre-flight weather briefing.

22:19:27 UTC

UCFO METAR
Osh
Osh
Current

49 mins ago

UCFO 222130Z 21001MPS 0650 0600N R12/1400N FZFG VV007 M04/M04 Q1027 R12/2///95 TEMPO 0100 FZFG
Observed
Jan-22 @ 21:30 UTC
Wind
  • 210° at 2 KTS
Visibility
600 meters
Flight Rules
LIFR
Conditions
Freezing Fog
Cloud Levels
  • Vertical visibility at 700' AGL
Temperature
-4°C / 25°F
Dewpoint
-4°C / 25°F
Humidity
100%
Altimeter
30.32" Hg
Pressure
1026.92 hPa
Previous

1 hour ago

UCFO 222100Z 13001MPS 0050 0000N R12/0150D FZFG VV001 M04/M04 Q1027 R12/2///95 NOSIG
Observed
Jan-22 @ 21:00 UTC
Wind
  • 130° at 2 KTS
Visibility
0 meters
Flight Rules
LIFR
Conditions
Freezing Fog
Cloud Levels
  • Vertical visibility at 100' AGL
Temperature
-4°C / 25°F
Dewpoint
-4°C / 25°F
Humidity
100%
Altimeter
30.32" Hg
Pressure
1026.92 hPa
Previous

2 hours ago

UCFO 222030Z 12001MPS 0350 0050W R12/0050U FZFG VV001 M04/M04 Q1026 R12/2///95 NOSIG
Observed
Jan-22 @ 20:30 UTC
Wind
  • 120° at 2 KTS
Visibility
400 meters
Flight Rules
LIFR
Conditions
Freezing Fog
Cloud Levels
  • Vertical visibility at 100' AGL
Temperature
-4°C / 25°F
Dewpoint
-4°C / 25°F
Humidity
100%
Altimeter
30.3" Hg
Pressure
1025.92 hPa